createdAt,value
2023-04-02T00:03:59.542Z,0.70
2023-04-02T00:09:30.859Z,0.57
2023-04-02T00:14:54.961Z,0.90
2023-04-02T00:20:20.009Z,0.40
2023-04-02T00:25:45.380Z,0.60
2023-04-02T00:31:10.579Z,0.70
2023-04-02T00:36:34.726Z,0.57
2023-04-02T00:42:07.608Z,0.68
2023-04-02T00:47:37.191Z,0.70
2023-04-02T00:53:00.465Z,0.70
2023-04-02T00:58:27.643Z,0.60
2023-04-02T01:03:58.370Z,0.77
2023-04-02T01:09:48.345Z,0.70
2023-04-02T01:15:30.415Z,0.52
2023-04-02T01:21:15.917Z,0.70
2023-04-02T01:26:48.060Z,0.68
2023-04-02T01:32:13.897Z,0.80
2023-04-02T01:37:49.561Z,0.80
2023-04-02T01:43:34.394Z,0.55
2023-04-02T01:48:57.676Z,0.35
2023-04-02T01:54:20.982Z,0.77
2023-04-02T01:59:42.991Z,0.70
2023-04-02T02:05:06.475Z,0.40
2023-04-02T02:10:38.505Z,0.50
2023-04-02T02:16:01.533Z,0.40
2023-04-02T02:21:43.838Z,0.40
2023-04-02T02:27:23.380Z,0.50
2023-04-02T02:33:25.474Z,0.52
2023-04-02T02:39:18.824Z,0.70
2023-04-02T02:44:44.728Z,0.90
2023-04-02T02:50:13.910Z,0.50
2023-04-02T02:55:38.099Z,0.60
2023-04-02T03:01:00.440Z,0.68
2023-04-02T03:06:22.577Z,0.40
2023-04-02T03:11:52.324Z,0.38
2023-04-02T03:17:33.799Z,0.50
2023-04-02T03:23:03.808Z,0.60
2023-04-02T03:28:33.011Z,0.60
2023-04-02T03:33:59.197Z,0.65
2023-04-02T03:39:37.643Z,0.50
2023-04-02T03:45:15.295Z,0.50
2023-04-02T03:50:40.195Z,0.50
2023-04-02T03:56:02.419Z,0.50
2023-04-02T04:01:35.301Z,0.88
2023-04-02T04:06:58.532Z,0.70
2023-04-02T04:12:46.895Z,0.55
2023-04-02T04:18:34.628Z,0.50
2023-04-02T04:24:05.795Z,0.40
2023-04-02T04:29:30.510Z,0.60
2023-04-02T04:34:57.516Z,0.50
2023-04-02T04:40:31.833Z,0.60
2023-04-02T04:46:03.380Z,0.60
2023-04-02T04:51:52.042Z,0.50
2023-04-02T04:57:29.256Z,0.50
2023-04-02T05:03:06.009Z,0.60
2023-04-02T05:08:33.019Z,0.75
2023-04-02T05:14:01.236Z,0.30
2023-04-02T05:19:31.480Z,0.60
2023-04-02T05:25:18.167Z,0.65
2023-04-02T05:30:49.527Z,0.60
2023-04-02T05:36:18.289Z,0.52
2023-04-02T05:42:00.158Z,0.40
2023-04-02T05:47:27.418Z,0.40
2023-04-02T05:52:55.324Z,0.55
2023-04-02T05:58:35.451Z,0.40
2023-04-02T06:04:52.306Z,0.50
2023-04-02T06:10:23.487Z,0.70
2023-04-02T06:15:47.864Z,0.60
2023-04-02T06:21:14.229Z,0.70
2023-04-02T06:26:48.302Z,0.60
2023-04-02T06:32:12.552Z,0.80
2023-04-02T06:37:41.003Z,0.80
2023-04-02T06:43:21.059Z,1.88
2023-04-02T06:48:44.743Z,1.00
2023-04-02T06:54:13.106Z,0.77
2023-04-02T06:59:34.841Z,0.80
2023-04-02T07:05:09.032Z,0.68
2023-04-02T07:10:31.059Z,0.73
2023-04-02T07:15:54.962Z,0.60
2023-04-02T07:21:16.961Z,0.60
2023-04-02T07:26:38.932Z,0.70
2023-04-02T07:32:00.766Z,0.70
2023-04-02T07:37:22.458Z,0.50
2023-04-02T07:42:44.937Z,0.50
2023-04-02T07:48:08.347Z,0.60
2023-04-02T07:53:37.705Z,0.77
2023-04-02T07:58:59.438Z,0.50
2023-04-02T08:04:22.394Z,0.88
2023-04-02T08:09:44.442Z,0.73
2023-04-02T08:15:06.982Z,0.80
2023-04-02T08:20:28.741Z,1.02
2023-04-02T08:25:50.924Z,1.05
2023-04-02T08:31:13.480Z,0.73
2023-04-02T08:36:37.912Z,0.95
2023-04-02T08:42:07.071Z,0.80
2023-04-02T08:47:32.494Z,0.90
2023-04-02T08:52:54.590Z,1.50
2023-04-02T08:58:39.172Z,0.80
2023-04-02T09:04:03.319Z,0.70
2023-04-02T09:09:25.710Z,0.80
2023-04-02T09:15:06.004Z,1.00
2023-04-02T09:20:29.297Z,0.80
2023-04-02T09:26:03.525Z,0.60
2023-04-02T09:31:39.009Z,1.00
2023-04-02T09:37:19.433Z,0.70
2023-04-02T09:42:41.273Z,0.80
2023-04-02T09:48:15.452Z,0.60
2023-04-02T09:53:43.208Z,0.65
2023-04-02T09:59:15.307Z,0.80
2023-04-02T10:04:45.305Z,0.65
2023-04-02T10:10:29.252Z,0.70
2023-04-02T10:16:24.951Z,0.75
2023-04-02T10:21:52.249Z,0.70
2023-04-02T10:27:41.470Z,0.50
2023-04-02T10:33:17.317Z,0.73
2023-04-02T10:38:44.243Z,1.10
2023-04-02T10:44:21.902Z,0.80
2023-04-02T10:49:55.632Z,1.00
2023-04-02T10:55:25.409Z,1.15
2023-04-02T11:00:47.629Z,0.85
2023-04-02T11:06:27.081Z,0.65
2023-04-02T11:11:54.743Z,0.60
2023-04-02T11:17:17.908Z,0.28
2023-04-02T11:22:39.706Z,0.40
2023-04-02T11:28:27.998Z,0.50
2023-04-02T11:33:50.202Z,0.60
2023-04-02T11:39:17.484Z,0.43
2023-04-02T11:44:39.605Z,0.30
2023-04-02T11:50:02.606Z,0.50
2023-04-02T11:55:33.658Z,0.93
2023-04-02T12:01:33.174Z,0.40
2023-04-02T12:07:10.789Z,0.30
2023-04-02T12:12:40.380Z,0.40
2023-04-02T12:18:17.376Z,0.45
2023-04-02T12:23:39.287Z,0.40
2023-04-02T12:29:23.484Z,0.50
2023-04-02T12:34:46.456Z,0.50
2023-04-02T12:40:18.268Z,0.70
2023-04-02T12:45:40.236Z,0.80
2023-04-02T12:51:03.596Z,0.50
2023-04-02T12:56:25.774Z,0.43
2023-04-02T13:01:59.094Z,0.40
2023-04-02T13:07:26.255Z,0.40
2023-04-02T13:12:48.006Z,0.52
2023-04-02T13:18:12.686Z,0.73
2023-04-02T13:23:36.921Z,0.80
2023-04-02T13:29:00.254Z,0.90
2023-04-02T13:34:22.389Z,1.20
2023-04-02T13:39:44.053Z,1.27
2023-04-02T13:45:16.975Z,1.13
2023-04-02T13:50:38.906Z,1.10
2023-04-02T13:56:00.846Z,1.15
2023-04-02T14:01:24.559Z,1.27
2023-04-02T14:07:00.795Z,1.27
2023-04-02T14:12:48.671Z,1.10
2023-04-02T14:18:52.332Z,1.20
2023-04-02T14:24:49.544Z,1.30
2023-04-02T14:30:45.332Z,1.20
2023-04-02T14:36:28.717Z,1.02
2023-04-02T14:42:10.673Z,1.33
2023-04-02T14:47:44.836Z,1.20
2023-04-02T14:53:21.104Z,1.00
2023-04-02T14:58:46.783Z,0.95
2023-04-02T15:04:16.703Z,1.08
2023-04-02T15:09:45.519Z,1.30
2023-04-02T15:15:39.021Z,1.60
2023-04-02T15:21:09.399Z,1.25
2023-04-02T15:27:07.121Z,1.00
2023-04-02T15:32:34.050Z,1.17
2023-04-02T15:38:35.832Z,1.67
2023-04-02T15:44:08.112Z,1.17
2023-04-02T15:49:42.825Z,1.40
2023-04-02T15:55:23.574Z,1.00
2023-04-02T16:01:08.261Z,2.08
2023-04-02T16:07:01.543Z,1.30
2023-04-02T16:12:25.660Z,1.67
2023-04-02T16:17:53.651Z,1.45
2023-04-02T16:23:24.557Z,1.90
2023-04-02T16:28:56.815Z,1.90
2023-04-02T16:34:30.695Z,1.33
2023-04-02T16:40:17.332Z,1.33
2023-04-02T16:46:01.823Z,1.85
2023-04-02T16:51:31.820Z,1.50
2023-04-02T16:57:05.644Z,1.95
2023-04-02T17:02:46.035Z,1.55
2023-04-02T17:08:23.136Z,1.60
2023-04-02T17:13:50.391Z,1.60
2023-04-02T17:19:14.713Z,1.58
2023-04-02T17:24:44.284Z,1.30
2023-04-02T17:30:34.000Z,1.50
2023-04-02T17:35:59.717Z,1.30
2023-04-02T17:41:41.374Z,1.50
2023-04-02T17:47:14.898Z,1.70
2023-04-02T17:52:46.123Z,1.70
2023-04-02T17:58:23.647Z,2.03
2023-04-02T18:03:54.294Z,2.30
2023-04-02T18:09:37.173Z,2.00
2023-04-02T18:15:23.359Z,2.15
2023-04-02T18:20:53.823Z,1.98
2023-04-02T18:26:22.262Z,2.47
2023-04-02T18:31:53.731Z,2.25
2023-04-02T18:37:21.460Z,2.80
2023-04-02T18:43:07.015Z,2.90
2023-04-02T18:48:56.787Z,2.65
2023-04-02T18:54:41.778Z,2.97
2023-04-02T19:00:11.509Z,3.00
2023-04-02T19:05:44.668Z,2.90
2023-04-02T19:11:12.500Z,2.72
2023-04-02T19:16:43.157Z,3.00
2023-04-02T19:22:18.277Z,2.72
2023-04-02T19:27:51.339Z,2.33
2023-04-02T19:33:13.194Z,2.53
2023-04-02T19:38:53.845Z,2.10
2023-04-02T19:44:17.329Z,2.30
2023-04-02T19:49:39.082Z,2.42
2023-04-02T19:55:00.814Z,2.35
2023-04-02T20:00:22.512Z,2.53
2023-04-02T20:05:44.315Z,2.70
2023-04-02T20:11:06.901Z,2.58
2023-04-02T20:16:28.703Z,2.80
2023-04-02T20:21:50.509Z,2.20
2023-04-02T20:27:12.219Z,2.65
2023-04-02T20:32:37.223Z,2.63
2023-04-02T20:37:59.934Z,2.70
2023-04-02T20:43:22.495Z,2.40
2023-04-02T20:48:44.921Z,2.50
2023-04-02T20:54:06.734Z,2.23
2023-04-02T20:59:28.546Z,1.98
2023-04-02T21:04:50.358Z,2.17
2023-04-02T21:10:12.136Z,2.08
2023-04-02T21:15:34.134Z,2.17
2023-04-02T21:21:01.321Z,2.00
2023-04-02T21:26:23.478Z,2.10
2023-04-02T21:31:45.571Z,2.50
2023-04-02T21:37:07.366Z,2.20
2023-04-02T21:42:29.092Z,2.27
2023-04-02T21:47:50.943Z,2.20
2023-04-02T21:53:12.701Z,2.50
2023-04-02T21:58:34.710Z,2.40
2023-04-02T22:03:57.681Z,2.28
2023-04-02T22:09:22.757Z,2.27
2023-04-02T22:14:44.424Z,2.30
2023-04-02T22:20:06.651Z,2.10
2023-04-02T22:25:28.317Z,2.00
2023-04-02T22:30:50.262Z,2.15
2023-04-02T22:36:12.882Z,2.37
2023-04-02T22:41:35.405Z,2.20
2023-04-02T22:46:57.109Z,2.15
2023-04-02T22:52:18.813Z,2.00
2023-04-02T22:57:42.006Z,2.10
2023-04-02T23:03:04.196Z,2.50
2023-04-02T23:08:25.992Z,2.00
2023-04-02T23:13:50.268Z,2.30
2023-04-02T23:19:11.987Z,2.03
2023-04-02T23:24:33.689Z,2.20
2023-04-02T23:29:55.599Z,2.53
2023-04-02T23:35:17.274Z,2.17
2023-04-02T23:40:38.991Z,2.40
2023-04-02T23:46:00.991Z,2.20
2023-04-02T23:51:23.740Z,2.20
2023-04-02T23:56:45.539Z,2.40
